sensor_id;sensor_type;location;lat;lon;timestamp;P1;durP1;ratioP1;P2;durP2;ratioP2
27839;SDS011;15207;42.182;24.308;2023-02-01T00:01:57;5.70;;;3.10;;
27839;SDS011;15207;42.182;24.308;2023-02-01T00:04:23;6.50;;;3.20;;
27839;SDS011;15207;42.182;24.308;2023-02-01T00:06:48;10.97;;;3.67;;
27839;SDS011;15207;42.182;24.308;2023-02-01T00:09:14;6.20;;;3.70;;
27839;SDS011;15207;42.182;24.308;2023-02-01T00:11:40;6.55;;;3.10;;
27839;SDS011;15207;42.182;24.308;2023-02-01T00:14:05;16.85;;;6.20;;
27839;SDS011;15207;42.182;24.308;2023-02-01T00:19:17;96.10;;;25.70;;
27839;SDS011;15207;42.182;24.308;2023-02-01T00:21:42;44.40;;;12.60;;
27839;SDS011;15207;42.182;24.308;2023-02-01T00:24:09;14.75;;;5.00;;
27839;SDS011;15207;42.182;24.308;2023-02-01T00:26:37;8.90;;;3.65;;
27839;SDS011;15207;42.182;24.308;2023-02-01T00:29:11;8.00;;;3.25;;
27839;SDS011;15207;42.182;24.308;2023-02-01T00:31:39;3.30;;;2.20;;
27839;SDS011;15207;42.182;24.308;2023-02-01T00:34:04;2.40;;;2.10;;
27839;SDS011;15207;42.182;24.308;2023-02-01T00:36:31;3.72;;;2.30;;
27839;SDS011;15207;42.182;24.308;2023-02-01T00:38:56;4.80;;;2.30;;
27839;SDS011;15207;42.182;24.308;2023-02-01T00:41:22;2.80;;;1.90;;
27839;SDS011;15207;42.182;24.308;2023-02-01T00:43:48;3.90;;;2.10;;
27839;SDS011;15207;42.182;24.308;2023-02-01T00:46:15;4.20;;;2.10;;
27839;SDS011;15207;42.182;24.308;2023-02-01T00:48:42;2.35;;;1.70;;
27839;SDS011;15207;42.182;24.308;2023-02-01T00:53:36;2.70;;;2.00;;
27839;SDS011;15207;42.182;24.308;2023-02-01T00:56:03;2.70;;;1.65;;
27839;SDS011;15207;42.182;24.308;2023-02-01T00:58:30;4.30;;;2.10;;
27839;SDS011;15207;42.182;24.308;2023-02-01T01:03:43;5.45;;;2.30;;
27839;SDS011;15207;42.182;24.308;2023-02-01T01:06:12;7.50;;;2.30;;
27839;SDS011;15207;42.182;24.308;2023-02-01T01:11:07;3.60;;;2.00;;
27839;SDS011;15207;42.182;24.308;2023-02-01T01:13:37;4.40;;;2.10;;
27839;SDS011;15207;42.182;24.308;2023-02-01T01:16:04;3.25;;;2.20;;
27839;SDS011;15207;42.182;24.308;2023-02-01T01:18:31;2.40;;;1.90;;
27839;SDS011;15207;42.182;24.308;2023-02-01T01:20:58;2.90;;;2.20;;
27839;SDS011;15207;42.182;24.308;2023-02-01T01:23:24;4.10;;;2.50;;
27839;SDS011;15207;42.182;24.308;2023-02-01T01:25:50;5.53;;;2.43;;
27839;SDS011;15207;42.182;24.308;2023-02-01T01:28:15;7.80;;;2.42;;
27839;SDS011;15207;42.182;24.308;2023-02-01T01:30:40;4.10;;;2.30;;
27839;SDS011;15207;42.182;24.308;2023-02-01T01:33:06;3.30;;;2.30;;
27839;SDS011;15207;42.182;24.308;2023-02-01T01:35:32;2.83;;;1.90;;
27839;SDS011;15207;42.182;24.308;2023-02-01T01:37:58;4.50;;;2.30;;
27839;SDS011;15207;42.182;24.308;2023-02-01T01:40:25;4.50;;;2.90;;
27839;SDS011;15207;42.182;24.308;2023-02-01T01:42:52;3.05;;;2.40;;
27839;SDS011;15207;42.182;24.308;2023-02-01T01:45:33;3.20;;;2.40;;
27839;SDS011;15207;42.182;24.308;2023-02-01T01:50:27;2.70;;;2.40;;
27839;SDS011;15207;42.182;24.308;2023-02-01T01:52:57;5.65;;;2.70;;
27839;SDS011;15207;42.182;24.308;2023-02-01T01:55:26;3.60;;;2.70;;
27839;SDS011;15207;42.182;24.308;2023-02-01T01:58:04;3.80;;;2.00;;
27839;SDS011;15207;42.182;24.308;2023-02-01T02:00:33;2.80;;;2.10;;
27839;SDS011;15207;42.182;24.308;2023-02-01T02:03:08;3.10;;;2.40;;
27839;SDS011;15207;42.182;24.308;2023-02-01T02:10:31;3.50;;;2.80;;
27839;SDS011;15207;42.182;24.308;2023-02-01T02:13:16;4.57;;;2.80;;
27839;SDS011;15207;42.182;24.308;2023-02-01T02:15:45;4.65;;;2.65;;
27839;SDS011;15207;42.182;24.308;2023-02-01T02:18:19;9.95;;;2.80;;
27839;SDS011;15207;42.182;24.308;2023-02-01T02:26:21;4.90;;;2.60;;
27839;SDS011;15207;42.182;24.308;2023-02-01T02:37:13;5.40;;;2.90;;
27839;SDS011;15207;42.182;24.308;2023-02-01T02:45:35;6.00;;;2.70;;
27839;SDS011;15207;42.182;24.308;2023-02-01T02:51:05;5.00;;;3.20;;
27839;SDS011;15207;42.182;24.308;2023-02-01T02:56:48;5.93;;;4.32;;
27839;SDS011;15207;42.182;24.308;2023-02-01T02:59:33;4.60;;;3.65;;
27839;SDS011;15207;42.182;24.308;2023-02-01T03:02:19;5.60;;;4.00;;
27839;SDS011;15207;42.182;24.308;2023-02-01T03:05:05;4.35;;;3.45;;
27839;SDS011;15207;42.182;24.308;2023-02-01T03:12:49;6.00;;;3.70;;
27839;SDS011;15207;42.182;24.308;2023-02-01T03:15:27;7.35;;;4.15;;
27839;SDS011;15207;42.182;24.308;2023-02-01T03:18:00;5.55;;;4.00;;
27839;SDS011;15207;42.182;24.308;2023-02-01T03:22:55;7.20;;;4.55;;
27839;SDS011;15207;42.182;24.308;2023-02-01T03:25:22;8.50;;;4.65;;
27839;SDS011;15207;42.182;24.308;2023-02-01T03:27:57;11.15;;;4.90;;
27839;SDS011;15207;42.182;24.308;2023-02-01T03:30:39;7.10;;;4.90;;
27839;SDS011;15207;42.182;24.308;2023-02-01T03:33:10;6.70;;;4.10;;
27839;SDS011;15207;42.182;24.308;2023-02-01T03:36:01;6.40;;;4.00;;
27839;SDS011;15207;42.182;24.308;2023-02-01T03:44:17;5.80;;;4.20;;
27839;SDS011;15207;42.182;24.308;2023-02-01T03:47:08;4.95;;;4.10;;
27839;SDS011;15207;42.182;24.308;2023-02-01T03:52:16;6.65;;;3.65;;
27839;SDS011;15207;42.182;24.308;2023-02-01T03:54:46;6.30;;;3.70;;
27839;SDS011;15207;42.182;24.308;2023-02-01T03:57:13;7.35;;;3.60;;
27839;SDS011;15207;42.182;24.308;2023-02-01T03:59:42;10.80;;;3.80;;
27839;SDS011;15207;42.182;24.308;2023-02-01T04:02:09;8.90;;;3.90;;
27839;SDS011;15207;42.182;24.308;2023-02-01T04:04:35;5.80;;;3.60;;
27839;SDS011;15207;42.182;24.308;2023-02-01T04:09:28;7.00;;;4.20;;
27839;SDS011;15207;42.182;24.308;2023-02-01T04:11:53;10.10;;;4.10;;
27839;SDS011;15207;42.182;24.308;2023-02-01T04:14:19;5.20;;;3.15;;
27839;SDS011;15207;42.182;24.308;2023-02-01T04:16:44;6.80;;;3.00;;
27839;SDS011;15207;42.182;24.308;2023-02-01T04:19:10;8.50;;;2.90;;
27839;SDS011;15207;42.182;24.308;2023-02-01T04:21:36;5.50;;;3.20;;
27839;SDS011;15207;42.182;24.308;2023-02-01T04:24:02;8.43;;;3.20;;
27839;SDS011;15207;42.182;24.308;2023-02-01T04:26:27;7.35;;;3.30;;
27839;SDS011;15207;42.182;24.308;2023-02-01T04:28:53;9.40;;;3.00;;
27839;SDS011;15207;42.182;24.308;2023-02-01T04:31:18;5.03;;;3.30;;
27839;SDS011;15207;42.182;24.308;2023-02-01T04:33:50;5.97;;;2.83;;
27839;SDS011;15207;42.182;24.308;2023-02-01T04:36:18;4.20;;;2.80;;
27839;SDS011;15207;42.182;24.308;2023-02-01T04:38:47;4.60;;;2.70;;
27839;SDS011;15207;42.182;24.308;2023-02-01T04:41:13;3.20;;;2.60;;
27839;SDS011;15207;42.182;24.308;2023-02-01T04:43:40;7.10;;;2.75;;
27839;SDS011;15207;42.182;24.308;2023-02-01T04:46:06;4.70;;;2.60;;
27839;SDS011;15207;42.182;24.308;2023-02-01T04:48:31;6.73;;;2.70;;
27839;SDS011;15207;42.182;24.308;2023-02-01T04:50:57;7.27;;;3.10;;
27839;SDS011;15207;42.182;24.308;2023-02-01T04:53:22;5.20;;;2.80;;
27839;SDS011;15207;42.182;24.308;2023-02-01T04:55:48;4.90;;;2.90;;
27839;SDS011;15207;42.182;24.308;2023-02-01T04:58:15;3.55;;;2.65;;
27839;SDS011;15207;42.182;24.308;2023-02-01T05:00:40;7.50;;;2.80;;
27839;SDS011;15207;42.182;24.308;2023-02-01T05:03:06;7.75;;;3.20;;
27839;SDS011;15207;42.182;24.308;2023-02-01T05:05:32;6.60;;;3.05;;
27839;SDS011;15207;42.182;24.308;2023-02-01T05:07:57;4.85;;;2.75;;
27839;SDS011;15207;42.182;24.308;2023-02-01T05:10:23;4.10;;;2.50;;
27839;SDS011;15207;42.182;24.308;2023-02-01T05:12:48;7.40;;;2.85;;
27839;SDS011;15207;42.182;24.308;2023-02-01T05:15:32;3.50;;;2.60;;
27839;SDS011;15207;42.182;24.308;2023-02-01T05:17:58;7.75;;;2.60;;
27839;SDS011;15207;42.182;24.308;2023-02-01T05:20:24;4.47;;;2.45;;
27839;SDS011;15207;42.182;24.308;2023-02-01T05:22:50;7.35;;;2.00;;
27839;SDS011;15207;42.182;24.308;2023-02-01T05:25:15;2.70;;;1.95;;
27839;SDS011;15207;42.182;24.308;2023-02-01T05:27:41;7.83;;;2.20;;
27839;SDS011;15207;42.182;24.308;2023-02-01T05:30:07;5.75;;;2.35;;
27839;SDS011;15207;42.182;24.308;2023-02-01T05:32:34;6.50;;;2.30;;
27839;SDS011;15207;42.182;24.308;2023-02-01T05:34:59;16.35;;;2.90;;
27839;SDS011;15207;42.182;24.308;2023-02-01T05:37:25;8.30;;;2.80;;
27839;SDS011;15207;42.182;24.308;2023-02-01T05:39:51;9.10;;;2.65;;
27839;SDS011;15207;42.182;24.308;2023-02-01T05:42:16;11.80;;;2.80;;
27839;SDS011;15207;42.182;24.308;2023-02-01T05:44:42;6.00;;;2.30;;
27839;SDS011;15207;42.182;24.308;2023-02-01T05:49:33;5.10;;;2.45;;
27839;SDS011;15207;42.182;24.308;2023-02-01T05:51:59;6.10;;;2.70;;
27839;SDS011;15207;42.182;24.308;2023-02-01T05:54:24;144.65;;;10.50;;
27839;SDS011;15207;42.182;24.308;2023-02-01T05:56:50;46.10;;;6.20;;
27839;SDS011;15207;42.182;24.308;2023-02-01T05:59:15;12.10;;;5.70;;
27839;SDS011;15207;42.182;24.308;2023-02-01T06:01:41;179.55;;;14.05;;
27839;SDS011;15207;42.182;24.308;2023-02-01T06:04:07;79.83;;;8.70;;
27839;SDS011;15207;42.182;24.308;2023-02-01T06:08:59;12.65;;;5.85;;
27839;SDS011;15207;42.182;24.308;2023-02-01T06:11:25;17.00;;;5.50;;
27839;SDS011;15207;42.182;24.308;2023-02-01T06:13:50;10.20;;;4.30;;
27839;SDS011;15207;42.182;24.308;2023-02-01T06:16:16;11.03;;;4.20;;
27839;SDS011;15207;42.182;24.308;2023-02-01T06:18:42;6.65;;;3.70;;
27839;SDS011;15207;42.182;24.308;2023-02-01T06:21:08;7.27;;;3.30;;
27839;SDS011;15207;42.182;24.308;2023-02-01T06:23:33;14.10;;;4.20;;
27839;SDS011;15207;42.182;24.308;2023-02-01T06:26:03;10.83;;;4.93;;
27839;SDS011;15207;42.182;24.308;2023-02-01T06:28:31;12.37;;;4.87;;
27839;SDS011;15207;42.182;24.308;2023-02-01T06:30:57;6.95;;;3.75;;
27839;SDS011;15207;42.182;24.308;2023-02-01T06:33:27;8.27;;;3.63;;
27839;SDS011;15207;42.182;24.308;2023-02-01T06:35:56;11.73;;;5.80;;
27839;SDS011;15207;42.182;24.308;2023-02-01T06:38:23;14.25;;;5.75;;
27839;SDS011;15207;42.182;24.308;2023-02-01T06:40:56;11.40;;;4.60;;
27839;SDS011;15207;42.182;24.308;2023-02-01T06:43:24;11.70;;;3.90;;
27839;SDS011;15207;42.182;24.308;2023-02-01T06:45:51;9.85;;;3.80;;
27839;SDS011;15207;42.182;24.308;2023-02-01T06:48:17;11.30;;;4.40;;
27839;SDS011;15207;42.182;24.308;2023-02-01T06:50:42;10.75;;;3.55;;
27839;SDS011;15207;42.182;24.308;2023-02-01T06:53:08;7.63;;;3.55;;
27839;SDS011;15207;42.182;24.308;2023-02-01T06:55:34;7.00;;;3.30;;
27839;SDS011;15207;42.182;24.308;2023-02-01T06:57:59;8.75;;;3.70;;
27839;SDS011;15207;42.182;24.308;2023-02-01T07:00:27;6.35;;;2.90;;
27839;SDS011;15207;42.182;24.308;2023-02-01T07:02:53;5.60;;;3.40;;
27839;SDS011;15207;42.182;24.308;2023-02-01T07:05:19;7.60;;;3.10;;
27839;SDS011;15207;42.182;24.308;2023-02-01T07:10:11;5.35;;;2.55;;
27839;SDS011;15207;42.182;24.308;2023-02-01T07:12:38;4.60;;;2.90;;
27839;SDS011;15207;42.182;24.308;2023-02-01T07:17:29;13.50;;;2.90;;
27839;SDS011;15207;42.182;24.308;2023-02-01T07:19:55;10.50;;;2.90;;
27839;SDS011;15207;42.182;24.308;2023-02-01T07:22:21;10.45;;;2.80;;
27839;SDS011;15207;42.182;24.308;2023-02-01T07:24:47;6.13;;;2.50;;
27839;SDS011;15207;42.182;24.308;2023-02-01T07:27:12;5.37;;;2.20;;
27839;SDS011;15207;42.182;24.308;2023-02-01T07:29:38;8.75;;;2.63;;
27839;SDS011;15207;42.182;24.308;2023-02-01T07:32:04;7.20;;;2.30;;
27839;SDS011;15207;42.182;24.308;2023-02-01T07:34:29;6.60;;;2.30;;
27839;SDS011;15207;42.182;24.308;2023-02-01T07:36:58;7.70;;;2.40;;
27839;SDS011;15207;42.182;24.308;2023-02-01T07:41:50;6.80;;;2.50;;
27839;SDS011;15207;42.182;24.308;2023-02-01T07:44:15;6.80;;;2.20;;
27839;SDS011;15207;42.182;24.308;2023-02-01T07:46:44;7.10;;;3.00;;
27839;SDS011;15207;42.182;24.308;2023-02-01T07:49:09;6.20;;;3.40;;
27839;SDS011;15207;42.182;24.308;2023-02-01T07:51:35;6.83;;;4.27;;
27839;SDS011;15207;42.182;24.308;2023-02-01T07:54:00;8.15;;;4.00;;
27839;SDS011;15207;42.182;24.308;2023-02-01T07:56:26;18.20;;;4.20;;
27839;SDS011;15207;42.182;24.308;2023-02-01T07:58:53;15.10;;;5.10;;
27839;SDS011;15207;42.182;24.308;2023-02-01T08:01:22;16.90;;;5.10;;
27839;SDS011;15207;42.182;24.308;2023-02-01T08:03:53;15.90;;;5.50;;
27839;SDS011;15207;42.182;24.308;2023-02-01T08:06:21;12.10;;;4.50;;
27839;SDS011;15207;42.182;24.308;2023-02-01T08:08:48;10.60;;;5.00;;
27839;SDS011;15207;42.182;24.308;2023-02-01T08:11:15;8.90;;;4.90;;
27839;SDS011;15207;42.182;24.308;2023-02-01T08:13:41;14.50;;;5.75;;
27839;SDS011;15207;42.182;24.308;2023-02-01T08:16:10;7.35;;;4.63;;
27839;SDS011;15207;42.182;24.308;2023-02-01T08:21:10;15.70;;;6.00;;
27839;SDS011;15207;42.182;24.308;2023-02-01T08:23:38;11.70;;;6.20;;
27839;SDS011;15207;42.182;24.308;2023-02-01T08:26:06;14.85;;;7.70;;
27839;SDS011;15207;42.182;24.308;2023-02-01T08:28:41;13.60;;;7.65;;
27839;SDS011;15207;42.182;24.308;2023-02-01T08:31:08;12.05;;;7.20;;
27839;SDS011;15207;42.182;24.308;2023-02-01T08:33:36;20.00;;;6.70;;
27839;SDS011;15207;42.182;24.308;2023-02-01T08:36:05;7.10;;;3.10;;
27839;SDS011;15207;42.182;24.308;2023-02-01T08:38:32;6.50;;;3.00;;
27839;SDS011;15207;42.182;24.308;2023-02-01T08:41:08;4.45;;;2.40;;
27839;SDS011;15207;42.182;24.308;2023-02-01T08:43:36;6.30;;;2.10;;
27839;SDS011;15207;42.182;24.308;2023-02-01T08:50:53;10.27;;;2.07;;
27839;SDS011;15207;42.182;24.308;2023-02-01T08:55:47;14.50;;;2.57;;
27839;SDS011;15207;42.182;24.308;2023-02-01T08:58:14;12.70;;;2.10;;
27839;SDS011;15207;42.182;24.308;2023-02-01T09:00:42;6.75;;;2.00;;
27839;SDS011;15207;42.182;24.308;2023-02-01T09:03:10;5.40;;;1.60;;
27839;SDS011;15207;42.182;24.308;2023-02-01T09:05:37;7.15;;;1.60;;
27839;SDS011;15207;42.182;24.308;2023-02-01T09:08:03;5.10;;;1.70;;
27839;SDS011;15207;42.182;24.308;2023-02-01T09:10:29;8.30;;;2.10;;
27839;SDS011;15207;42.182;24.308;2023-02-01T09:12:55;5.35;;;1.90;;
27839;SDS011;15207;42.182;24.308;2023-02-01T09:15:20;8.30;;;2.30;;
27839;SDS011;15207;42.182;24.308;2023-02-01T09:17:46;10.05;;;2.35;;
27839;SDS011;15207;42.182;24.308;2023-02-01T09:20:12;5.50;;;1.70;;
27839;SDS011;15207;42.182;24.308;2023-02-01T09:22:37;4.60;;;1.90;;
27839;SDS011;15207;42.182;24.308;2023-02-01T09:25:04;9.60;;;3.20;;
27839;SDS011;15207;42.182;24.308;2023-02-01T09:27:30;10.80;;;3.20;;
27839;SDS011;15207;42.182;24.308;2023-02-01T09:29:56;4.63;;;2.03;;
27839;SDS011;15207;42.182;24.308;2023-02-01T09:32:22;5.10;;;2.50;;
27839;SDS011;15207;42.182;24.308;2023-02-01T09:34:48;3.30;;;1.60;;
27839;SDS011;15207;42.182;24.308;2023-02-01T09:37:15;8.15;;;1.65;;
27839;SDS011;15207;42.182;24.308;2023-02-01T09:39:40;5.95;;;2.10;;
27839;SDS011;15207;42.182;24.308;2023-02-01T09:47:27;5.60;;;2.15;;
27839;SDS011;15207;42.182;24.308;2023-02-01T10:00:59;9.75;;;2.00;;
27839;SDS011;15207;42.182;24.308;2023-02-01T10:03:28;8.03;;;2.57;;
27839;SDS011;15207;42.182;24.308;2023-02-01T10:13:43;6.43;;;1.98;;
27839;SDS011;15207;42.182;24.308;2023-02-01T10:16:16;4.40;;;1.90;;
27839;SDS011;15207;42.182;24.308;2023-02-01T10:18:57;6.35;;;1.70;;
27839;SDS011;15207;42.182;24.308;2023-02-01T10:26:51;5.40;;;1.80;;
27839;SDS011;15207;42.182;24.308;2023-02-01T10:29:25;5.65;;;1.30;;
27839;SDS011;15207;42.182;24.308;2023-02-01T10:31:59;6.20;;;2.20;;
27839;SDS011;15207;42.182;24.308;2023-02-01T10:34:27;6.40;;;1.60;;
27839;SDS011;15207;42.182;24.308;2023-02-01T10:39:24;8.63;;;1.83;;
27839;SDS011;15207;42.182;24.308;2023-02-01T10:41:51;4.90;;;1.80;;
27839;SDS011;15207;42.182;24.308;2023-02-01T10:44:18;4.75;;;1.95;;
27839;SDS011;15207;42.182;24.308;2023-02-01T10:46:50;3.50;;;1.40;;
27839;SDS011;15207;42.182;24.308;2023-02-01T10:49:28;4.65;;;1.70;;
27839;SDS011;15207;42.182;24.308;2023-02-01T10:52:12;6.70;;;2.60;;
27839;SDS011;15207;42.182;24.308;2023-02-01T10:54:48;4.03;;;1.77;;
27839;SDS011;15207;42.182;24.308;2023-02-01T10:59:51;5.25;;;1.80;;
27839;SDS011;15207;42.182;24.308;2023-02-01T11:02:34;6.80;;;2.00;;
27839;SDS011;15207;42.182;24.308;2023-02-01T11:05:07;9.30;;;1.90;;
27839;SDS011;15207;42.182;24.308;2023-02-01T11:07:37;4.20;;;1.60;;
27839;SDS011;15207;42.182;24.308;2023-02-01T11:10:33;8.20;;;1.40;;
27839;SDS011;15207;42.182;24.308;2023-02-01T11:13:17;7.90;;;1.50;;
27839;SDS011;15207;42.182;24.308;2023-02-01T11:15:44;5.85;;;1.60;;
27839;SDS011;15207;42.182;24.308;2023-02-01T11:18:15;8.60;;;1.80;;
27839;SDS011;15207;42.182;24.308;2023-02-01T11:20:44;2.50;;;1.40;;
27839;SDS011;15207;42.182;24.308;2023-02-01T11:23:23;4.75;;;1.23;;
27839;SDS011;15207;42.182;24.308;2023-02-01T11:30:48;3.15;;;1.05;;
27839;SDS011;15207;42.182;24.308;2023-02-01T11:33:17;8.90;;;1.50;;
27839;SDS011;15207;42.182;24.308;2023-02-01T11:35:45;6.37;;;1.60;;
27839;SDS011;15207;42.182;24.308;2023-02-01T11:40:55;2.80;;;1.40;;
27839;SDS011;15207;42.182;24.308;2023-02-01T11:43:36;6.55;;;1.77;;
27839;SDS011;15207;42.182;24.308;2023-02-01T11:46:02;3.90;;;1.90;;
27839;SDS011;15207;42.182;24.308;2023-02-01T11:48:30;34.95;;;3.30;;
27839;SDS011;15207;42.182;24.308;2023-02-01T11:51:04;11.25;;;1.90;;
27839;SDS011;15207;42.182;24.308;2023-02-01T11:56:54;13.00;;;1.90;;
27839;SDS011;15207;42.182;24.308;2023-02-01T12:13:16;3.30;;;1.10;;
27839;SDS011;15207;42.182;24.308;2023-02-01T12:41:17;7.75;;;1.40;;
27839;SDS011;15207;42.182;24.308;2023-02-01T12:46:46;3.00;;;0.90;;
27839;SDS011;15207;42.182;24.308;2023-02-01T12:49:15;3.47;;;1.63;;
27839;SDS011;15207;42.182;24.308;2023-02-01T12:54:20;4.60;;;1.40;;
27839;SDS011;15207;42.182;24.308;2023-02-01T12:56:53;10.50;;;1.97;;
27839;SDS011;15207;42.182;24.308;2023-02-01T12:59:59;4.90;;;1.40;;
27839;SDS011;15207;42.182;24.308;2023-02-01T13:02:32;2.20;;;1.30;;
27839;SDS011;15207;42.182;24.308;2023-02-01T13:05:20;3.20;;;1.40;;
27839;SDS011;15207;42.182;24.308;2023-02-01T13:16:02;3.00;;;1.20;;
27839;SDS011;15207;42.182;24.308;2023-02-01T13:18:39;1.83;;;1.40;;
27839;SDS011;15207;42.182;24.308;2023-02-01T13:21:10;5.25;;;1.10;;
27839;SDS011;15207;42.182;24.308;2023-02-01T13:23:41;3.93;;;1.50;;
27839;SDS011;15207;42.182;24.308;2023-02-01T13:26:11;2.95;;;2.00;;
27839;SDS011;15207;42.182;24.308;2023-02-01T13:28:50;1.45;;;1.15;;
27839;SDS011;15207;42.182;24.308;2023-02-01T13:31:38;6.27;;;1.60;;
27839;SDS011;15207;42.182;24.308;2023-02-01T13:42:05;2.55;;;1.35;;
27839;SDS011;15207;42.182;24.308;2023-02-01T13:44:47;1.85;;;1.05;;
27839;SDS011;15207;42.182;24.308;2023-02-01T13:47:26;4.15;;;1.10;;
27839;SDS011;15207;42.182;24.308;2023-02-01T13:49:55;4.00;;;1.20;;
27839;SDS011;15207;42.182;24.308;2023-02-01T13:57:46;4.25;;;1.30;;
27839;SDS011;15207;42.182;24.308;2023-02-01T14:23:44;4.40;;;1.70;;
27839;SDS011;15207;42.182;24.308;2023-02-01T14:28:54;2.90;;;1.30;;
27839;SDS011;15207;42.182;24.308;2023-02-01T14:31:37;6.00;;;1.30;;
27839;SDS011;15207;42.182;24.308;2023-02-01T14:34:11;6.40;;;5.50;;
27839;SDS011;15207;42.182;24.308;2023-02-01T14:36:48;3.03;;;1.10;;
27839;SDS011;15207;42.182;24.308;2023-02-01T14:39:37;2.90;;;1.40;;
27839;SDS011;15207;42.182;24.308;2023-02-01T14:44:50;4.90;;;1.60;;
27839;SDS011;15207;42.182;24.308;2023-02-01T14:52:24;3.80;;;1.45;;
27839;SDS011;15207;42.182;24.308;2023-02-01T14:54:59;7.60;;;1.60;;
27839;SDS011;15207;42.182;24.308;2023-02-01T14:57:30;5.35;;;1.70;;
27839;SDS011;15207;42.182;24.308;2023-02-01T15:00:32;10.20;;;1.90;;
27839;SDS011;15207;42.182;24.308;2023-02-01T15:02:54;7.10;;;1.60;;
27839;SDS011;15207;42.182;24.308;2023-02-01T15:05:31;9.43;;;1.70;;
27839;SDS011;15207;42.182;24.308;2023-02-01T15:08:02;3.30;;;1.30;;
27839;SDS011;15207;42.182;24.308;2023-02-01T15:10:50;14.25;;;2.05;;
27839;SDS011;15207;42.182;24.308;2023-02-01T15:13:22;4.60;;;1.50;;
27839;SDS011;15207;42.182;24.308;2023-02-01T15:15:59;14.45;;;2.05;;
27839;SDS011;15207;42.182;24.308;2023-02-01T15:18:43;5.50;;;1.20;;
27839;SDS011;15207;42.182;24.308;2023-02-01T15:21:18;10.95;;;2.20;;
27839;SDS011;15207;42.182;24.308;2023-02-01T15:23:46;3.85;;;1.70;;
27839;SDS011;15207;42.182;24.308;2023-02-01T15:26:29;10.40;;;1.90;;
27839;SDS011;15207;42.182;24.308;2023-02-01T15:28:57;3.95;;;1.75;;
27839;SDS011;15207;42.182;24.308;2023-02-01T15:31:34;9.30;;;2.20;;
27839;SDS011;15207;42.182;24.308;2023-02-01T15:34:07;4.70;;;1.70;;
27839;SDS011;15207;42.182;24.308;2023-02-01T15:36:34;7.90;;;1.70;;
27839;SDS011;15207;42.182;24.308;2023-02-01T15:41:37;5.50;;;2.00;;
27839;SDS011;15207;42.182;24.308;2023-02-01T15:44:04;4.50;;;2.20;;
27839;SDS011;15207;42.182;24.308;2023-02-01T15:46:41;4.70;;;2.10;;
27839;SDS011;15207;42.182;24.308;2023-02-01T15:51:43;10.35;;;2.95;;
27839;SDS011;15207;42.182;24.308;2023-02-01T15:54:18;6.55;;;2.80;;
27839;SDS011;15207;42.182;24.308;2023-02-01T15:56:49;9.55;;;2.50;;
27839;SDS011;15207;42.182;24.308;2023-02-01T15:59:21;8.57;;;2.40;;
27839;SDS011;15207;42.182;24.308;2023-02-01T16:01:50;20.47;;;3.00;;
27839;SDS011;15207;42.182;24.308;2023-02-01T16:04:23;10.25;;;2.45;;
27839;SDS011;15207;42.182;24.308;2023-02-01T16:06:51;7.70;;;2.73;;
27839;SDS011;15207;42.182;24.308;2023-02-01T16:09:20;6.70;;;2.95;;
27839;SDS011;15207;42.182;24.308;2023-02-01T16:16:43;11.55;;;2.35;;
27839;SDS011;15207;42.182;24.308;2023-02-01T16:19:09;4.15;;;2.20;;
27839;SDS011;15207;42.182;24.308;2023-02-01T16:21:35;7.50;;;1.80;;
27839;SDS011;15207;42.182;24.308;2023-02-01T16:24:00;6.40;;;2.15;;
27839;SDS011;15207;42.182;24.308;2023-02-01T16:26:29;5.90;;;2.10;;
27839;SDS011;15207;42.182;24.308;2023-02-01T16:28:56;20.20;;;2.90;;
27839;SDS011;15207;42.182;24.308;2023-02-01T16:31:25;9.05;;;2.00;;
27839;SDS011;15207;42.182;24.308;2023-02-01T16:33:53;10.00;;;2.20;;
27839;SDS011;15207;42.182;24.308;2023-02-01T16:36:19;10.68;;;2.30;;
27839;SDS011;15207;42.182;24.308;2023-02-01T16:38:46;10.10;;;2.10;;
27839;SDS011;15207;42.182;24.308;2023-02-01T16:41:14;8.30;;;2.00;;
27839;SDS011;15207;42.182;24.308;2023-02-01T16:43:42;10.05;;;2.30;;
27839;SDS011;15207;42.182;24.308;2023-02-01T16:46:12;10.43;;;2.70;;
27839;SDS011;15207;42.182;24.308;2023-02-01T16:48:40;9.20;;;2.73;;
27839;SDS011;15207;42.182;24.308;2023-02-01T16:51:11;10.25;;;2.10;;
27839;SDS011;15207;42.182;24.308;2023-02-01T16:53:39;16.13;;;2.97;;
27839;SDS011;15207;42.182;24.308;2023-02-01T16:56:15;11.20;;;2.30;;
27839;SDS011;15207;42.182;24.308;2023-02-01T16:58:44;5.20;;;2.50;;
27839;SDS011;15207;42.182;24.308;2023-02-01T17:01:11;4.00;;;2.10;;
27839;SDS011;15207;42.182;24.308;2023-02-01T17:03:37;7.10;;;1.90;;
27839;SDS011;15207;42.182;24.308;2023-02-01T17:06:05;8.00;;;1.90;;
27839;SDS011;15207;42.182;24.308;2023-02-01T17:08:36;8.30;;;2.00;;
27839;SDS011;15207;42.182;24.308;2023-02-01T17:11:05;3.57;;;2.00;;
27839;SDS011;15207;42.182;24.308;2023-02-01T17:13:32;4.70;;;1.70;;
27839;SDS011;15207;42.182;24.308;2023-02-01T17:15:59;7.70;;;1.75;;
27839;SDS011;15207;42.182;24.308;2023-02-01T17:18:27;8.20;;;1.90;;
27839;SDS011;15207;42.182;24.308;2023-02-01T17:20:57;8.45;;;1.95;;
27839;SDS011;15207;42.182;24.308;2023-02-01T17:23:24;2.75;;;1.75;;
27839;SDS011;15207;42.182;24.308;2023-02-01T17:28:17;3.28;;;1.95;;
27839;SDS011;15207;42.182;24.308;2023-02-01T17:30:43;13.30;;;2.00;;
27839;SDS011;15207;42.182;24.308;2023-02-01T17:33:16;5.80;;;1.50;;
27839;SDS011;15207;42.182;24.308;2023-02-01T17:35:49;5.30;;;1.80;;
27839;SDS011;15207;42.182;24.308;2023-02-01T17:38:15;4.53;;;1.80;;
27839;SDS011;15207;42.182;24.308;2023-02-01T17:40:41;4.30;;;1.90;;
27839;SDS011;15207;42.182;24.308;2023-02-01T17:43:14;4.35;;;1.70;;
27839;SDS011;15207;42.182;24.308;2023-02-01T17:45:42;3.85;;;1.80;;
27839;SDS011;15207;42.182;24.308;2023-02-01T17:48:15;2.85;;;1.65;;
27839;SDS011;15207;42.182;24.308;2023-02-01T17:50:41;4.50;;;1.65;;
27839;SDS011;15207;42.182;24.308;2023-02-01T17:55:35;3.00;;;1.80;;
27839;SDS011;15207;42.182;24.308;2023-02-01T17:58:04;17.40;;;7.20;;
27839;SDS011;15207;42.182;24.308;2023-02-01T18:00:30;37.30;;;16.50;;
27839;SDS011;15207;42.182;24.308;2023-02-01T18:02:56;32.22;;;14.18;;
27839;SDS011;15207;42.182;24.308;2023-02-01T18:10:25;22.70;;;12.30;;
27839;SDS011;15207;42.182;24.308;2023-02-01T18:12:52;18.80;;;9.93;;
27839;SDS011;15207;42.182;24.308;2023-02-01T18:15:24;19.20;;;9.83;;
27839;SDS011;15207;42.182;24.308;2023-02-01T18:17:52;21.75;;;11.25;;
27839;SDS011;15207;42.182;24.308;2023-02-01T18:20:20;17.60;;;7.93;;
27839;SDS011;15207;42.182;24.308;2023-02-01T18:22:47;15.10;;;8.00;;
27839;SDS011;15207;42.182;24.308;2023-02-01T18:25:20;14.15;;;6.50;;
27839;SDS011;15207;42.182;24.308;2023-02-01T18:27:50;12.00;;;5.80;;
27839;SDS011;15207;42.182;24.308;2023-02-01T18:30:18;20.70;;;8.60;;
27839;SDS011;15207;42.182;24.308;2023-02-01T18:32:45;24.50;;;11.40;;
27839;SDS011;15207;42.182;24.308;2023-02-01T18:35:19;23.40;;;11.80;;
27839;SDS011;15207;42.182;24.308;2023-02-01T18:37:47;32.80;;;14.70;;
27839;SDS011;15207;42.182;24.308;2023-02-01T18:40:20;43.60;;;13.30;;
27839;SDS011;15207;42.182;24.308;2023-02-01T18:42:48;36.70;;;14.60;;
27839;SDS011;15207;42.182;24.308;2023-02-01T18:47:43;43.20;;;13.40;;
27839;SDS011;15207;42.182;24.308;2023-02-01T18:50:08;33.10;;;13.80;;
27839;SDS011;15207;42.182;24.308;2023-02-01T18:52:34;34.75;;;14.00;;
27839;SDS011;15207;42.182;24.308;2023-02-01T18:55:00;38.80;;;14.20;;
27839;SDS011;15207;42.182;24.308;2023-02-01T18:59:51;37.00;;;14.20;;